Time;durP1;ratioP1;P1;durP2;ratioP2;P2;SDS_P1;SDS_P2;PMS_P1;PMS_P2;Temp;Humidity;BMP_temperature;BMP_pressure;BME280_temperature;BME280_humidity;BME280_pressure;Samples;Min_cycle;Max_cycle;Signal;HPM_P1;HPM_P2
2021/11/02 00:01:37;;;;;;;8.15;3.08;;;6.40;99.90;;;;;;5028586;28;20041;-83
2021/11/02 00:04:03;;;;;;;6.75;3.47;;;6.40;99.90;;;;;;5045526;28;20064;-83
2021/11/02 00:06:42;;;;;;;5.63;2.80;;;6.40;99.90;;;;;;5035142;28;20029;-84
2021/11/02 00:09:09;;;;;;;10.75;3.10;;;6.40;99.90;;;;;;5033187;28;20401;-83
2021/11/02 00:11:35;;;;;;;9.25;3.45;;;6.40;99.90;;;;;;5033498;28;20437;-83
2021/11/02 00:14:03;;;;;;;6.38;2.72;;;6.40;99.90;;;;;;5034292;28;20370;-84
2021/11/02 00:16:29;;;;;;;9.77;3.20;;;6.40;99.90;;;;;;5022203;28;20081;-83
2021/11/02 00:19:03;;;;;;;10.82;3.42;;;6.30;99.90;;;;;;5032357;28;20022;-84
2021/11/02 00:21:34;;;;;;;12.75;3.08;;;6.30;99.90;;;;;;5033401;28;20071;-83
2021/11/02 00:24:27;;;;;;;9.90;3.00;;;6.30;99.90;;;;;;5032700;28;20028;-84
2021/11/02 00:26:53;;;;;;;;;;;6.20;99.90;;;;;;5032771;28;20095;-83
2021/11/02 00:29:19;;;;;;;6.53;3.17;;;6.10;99.90;;;;;;5033572;28;19917;-83
2021/11/02 00:31:45;;;;;;;10.90;3.10;;;6.10;99.90;;;;;;5031967;28;20029;-83
2021/11/02 00:34:10;;;;;;;10.55;4.25;;;6.10;99.90;;;;;;5044488;28;20022;-84
2021/11/02 00:36:36;;;;;;;11.00;4.35;;;6.10;99.90;;;;;;5033440;28;20049;-83
2021/11/02 00:39:03;;;;;;;9.98;3.80;;;6.10;99.90;;;;;;5032069;28;20056;-84
2021/11/02 00:41:28;;;;;;;11.50;3.33;;;6.10;99.90;;;;;;5032803;28;20215;-84
2021/11/02 00:43:55;;;;;;;10.73;3.38;;;6.10;99.90;;;;;;5029068;28;20026;-84
2021/11/02 00:46:30;;;;;;;5.90;3.00;;;6.10;99.90;;;;;;5029918;28;20079;-84
2021/11/02 00:48:56;;;;;;;11.63;3.58;;;6.10;99.90;;;;;;5036525;28;20029;-83
2021/11/02 00:51:21;;;;;;;8.45;3.28;;;6.00;99.90;;;;;;5027127;28;20176;-84
2021/11/02 00:53:47;;;;;;;9.90;3.50;;;6.00;99.90;;;;;;5032524;28;20013;-83
2021/11/02 00:56:12;;;;;;;12.60;3.08;;;6.00;99.90;;;;;;5037151;28;20040;-84
2021/11/02 00:58:38;;;;;;;10.77;3.70;;;5.90;99.90;;;;;;5034269;28;20087;-84
2021/11/02 01:01:04;;;;;;;15.35;4.13;;;5.90;99.90;;;;;;5035605;28;20052;-84
2021/11/02 01:03:31;;;;;;;9.13;3.13;;;5.90;99.90;;;;;;5041035;28;20481;-84
2021/11/02 01:05:56;;;;;;;16.33;3.72;;;6.00;99.90;;;;;;5036047;28;20025;-83
2021/11/02 01:08:22;;;;;;;12.55;3.80;;;5.90;99.90;;;;;;5035987;28;20484;-84
2021/11/02 01:10:48;;;;;;;10.27;3.75;;;5.90;99.90;;;;;;5035897;28;20075;-84
2021/11/02 01:13:14;;;;;;;12.02;3.65;;;5.90;99.90;;;;;;5026512;28;20022;-83
2021/11/02 01:15:40;;;;;;;11.75;4.47;;;5.90;99.90;;;;;;5044554;28;20028;-84
2021/11/02 01:18:06;;;;;;;16.15;4.28;;;5.90;99.90;;;;;;5034987;28;20405;-84
2021/11/02 01:20:31;;;;;;;11.05;3.85;;;5.90;99.90;;;;;;5036514;28;20025;-84
2021/11/02 01:22:57;;;;;;;8.82;3.45;;;5.90;99.90;;;;;;5034757;28;20024;-84
2021/11/02 01:25:23;;;;;;;9.68;4.72;;;5.90;99.90;;;;;;5038127;28;20021;-84
2021/11/02 01:27:49;;;;;;;10.35;4.03;;;5.90;99.90;;;;;;5019926;28;20122;-85
2021/11/02 01:30:14;;;;;;;8.73;3.55;;;5.90;99.90;;;;;;5042020;28;20113;-84
2021/11/02 01:32:41;;;;;;;16.05;4.72;;;5.80;99.90;;;;;;5043810;28;20069;-84
2021/11/02 01:35:07;;;;;;;11.07;3.83;;;5.80;99.90;;;;;;5035961;28;20032;-83
2021/11/02 01:37:34;;;;;;;16.98;4.88;;;5.70;99.90;;;;;;5040623;28;20040;-83
2021/11/02 01:40:00;;;;;;;10.38;3.95;;;5.70;99.90;;;;;;5036283;28;20029;-84
2021/11/02 01:42:27;;;;;;;10.05;3.88;;;5.70;99.90;;;;;;5047180;28;20034;-84
2021/11/02 01:44:53;;;;;;;11.68;4.28;;;5.70;99.90;;;;;;5052037;28;20063;-84
2021/11/02 01:47:21;;;;;;;10.93;4.43;;;5.60;99.90;;;;;;5042736;28;20037;-84
2021/11/02 01:49:47;;;;;;;9.55;4.13;;;5.70;99.90;;;;;;5037642;28;20488;-84
2021/11/02 01:52:13;;;;;;;9.60;4.28;;;5.70;99.90;;;;;;5036312;28;20072;-84
2021/11/02 01:54:39;;;;;;;12.43;4.13;;;5.60;99.90;;;;;;5052281;28;20051;-84
2021/11/02 01:57:05;;;;;;;11.27;4.28;;;5.70;99.90;;;;;;5057770;28;20044;-84
2021/11/02 01:59:33;;;;;;;10.50;3.65;;;5.70;99.90;;;;;;5056822;28;20017;-83
2021/11/02 02:02:08;;;;;;;10.57;3.83;;;5.70;99.90;;;;;;5039586;28;20505;-84
2021/11/02 02:04:48;;;;;;;12.45;3.72;;;5.70;99.90;;;;;;5055653;28;20389;-84
2021/11/02 02:07:41;;;;;;;12.50;5.40;;;5.70;99.90;;;;;;5047534;28;20327;-84
2021/11/02 02:10:16;;;;;;;9.70;3.47;;;5.70;99.90;;;;;;5040077;28;20033;-84
2021/11/02 02:12:52;;;;;;;9.43;3.63;;;5.70;99.90;;;;;;5042313;28;20057;-84
2021/11/02 02:15:40;;;;;;;10.32;3.50;;;5.70;99.90;;;;;;5055245;28;20025;-84
2021/11/02 02:18:16;;;;;;;7.95;3.58;;;5.70;99.90;;;;;;5046584;28;20045;-84
2021/11/02 02:21:09;;;;;;;11.27;3.95;;;5.70;99.90;;;;;;5051974;28;20021;-84
2021/11/02 02:23:57;;;;;;;9.80;3.67;;;5.70;99.90;;;;;;5038518;28;20025;-84
2021/11/02 02:26:35;;;;;;;9.32;3.45;;;5.60;99.90;;;;;;5036700;28;20679;-84
2021/11/02 02:29:03;;;;;;;10.65;4.20;;;5.70;99.90;;;;;;5062112;28;20033;-84
2021/11/02 02:31:33;;;;;;;10.75;4.05;;;5.70;99.90;;;;;;5055071;28;20490;-84
2021/11/02 02:34:00;;;;;;;11.93;3.42;;;5.70;99.90;;;;;;5039481;28;20029;-84
2021/11/02 02:36:28;;;;;;;6.90;3.38;;;5.70;99.90;;;;;;5055436;28;20423;-83
2021/11/02 02:38:54;;;;;;;9.40;3.78;;;5.60;99.90;;;;;;5053519;28;20028;-84
2021/11/02 02:41:24;;;;;;;10.02;3.42;;;5.70;99.90;;;;;;5056462;28;20025;-83
2021/11/02 02:43:51;;;;;;;10.07;3.60;;;5.60;99.90;;;;;;5049478;28;20472;-84
2021/11/02 02:46:19;;;;;;;8.52;3.35;;;5.70;99.90;;;;;;5043819;28;20032;-83
2021/11/02 02:48:46;;;;;;;7.82;3.35;;;5.60;99.90;;;;;;5043596;28;20029;-83
2021/11/02 02:51:13;;;;;;;6.38;3.38;;;5.60;99.90;;;;;;5056153;28;20021;-84
2021/11/02 02:53:44;;;;;;;5.85;3.13;;;5.60;99.90;;;;;;5037589;28;20033;-84
2021/11/02 02:56:11;;;;;;;9.77;4.05;;;5.70;99.90;;;;;;5037945;28;20033;-84
2021/11/02 02:58:41;;;;;;;9.60;3.55;;;5.70;99.90;;;;;;5055465;28;20047;-84
2021/11/02 03:01:09;;;;;;;6.78;3.10;;;5.70;99.90;;;;;;5034474;28;20053;-83
2021/11/02 03:03:38;;;;;;;8.95;3.45;;;5.70;99.90;;;;;;5035469;28;20021;-84
2021/11/02 03:06:06;;;;;;;7.63;3.70;;;5.70;99.90;;;;;;5041341;28;20047;-83
2021/11/02 03:08:33;;;;;;;10.90;3.63;;;5.70;99.90;;;;;;5035473;28;20026;-83
2021/11/02 03:11:00;;;;;;;12.25;4.72;;;5.70;99.90;;;;;;5031527;28;20060;-84
2021/11/02 03:13:29;;;;;;;11.15;3.78;;;5.60;99.90;;;;;;5026967;28;20018;-84
2021/11/02 03:16:02;;;;;;;7.60;3.33;;;5.70;99.90;;;;;;5034383;28;20501;-84
2021/11/02 03:49:12;;;;;;;9.98;3.70;;;5.50;99.90;;;;;;5034631;28;20040;-84
2021/11/02 03:54:35;;;;;;;8.77;4.28;;;5.50;99.90;;;;;;5034269;28;20028;-83
2021/11/02 04:00:11;;;;;;;7.18;4.03;;;5.40;99.90;;;;;;5034643;28;20029;-84
2021/11/02 04:44:46;;;;;;;6.15;3.42;;;5.30;99.90;;;;;;5054028;28;20039;-83
2021/11/02 05:47:11;;;;;;;8.73;3.33;;;5.70;99.90;;;;;;5044725;28;20044;-84
2021/11/02 05:50:36;;;;;;;7.45;3.58;;;5.80;99.90;;;;;;5042772;28;20029;-84
2021/11/02 06:00:31;;;;;;;10.90;3.72;;;5.80;99.90;;;;;;5057122;28;20116;-83
2021/11/02 06:05:51;;;;;;;6.72;3.60;;;5.80;99.90;;;;;;5057968;28;20116;-84
2021/11/02 06:28:00;;;;;;;8.55;3.70;;;6.00;99.90;;;;;;5017365;28;20064;-84
2021/11/02 06:30:32;;;;;;;7.05;3.85;;;6.00;99.90;;;;;;5016618;28;20025;-84
2021/11/02 06:33:09;;;;;;;5.93;3.50;;;6.00;99.90;;;;;;4999916;28;20057;-83
2021/11/02 06:35:50;;;;;;;7.70;3.67;;;6.00;99.90;;;;;;5002488;28;20030;-83
2021/11/02 06:48:57;;;;;;;7.43;3.90;;;6.10;99.90;;;;;;5017325;28;20018;-82
2021/11/02 06:51:41;;;;;;;7.88;3.42;;;6.10;99.90;;;;;;5007694;28;20022;-83
2021/11/02 07:15:26;;;;;;;7.47;3.40;;;6.20;99.90;;;;;;5017307;28;20053;-83
2021/11/02 07:19:38;;;;;;;9.07;3.90;;;6.30;99.90;;;;;;5002408;28;20108;-83
2021/11/02 08:45:23;;;;;;;8.57;5.53;;;8.10;99.90;;;;;;5013511;28;20112;-84
2021/11/02 08:47:52;;;;;;;8.20;5.35;;;8.20;99.90;;;;;;5014746;28;20079;-84
2021/11/02 08:50:19;;;;;;;10.63;4.55;;;8.20;99.90;;;;;;4996285;28;20026;-84
2021/11/02 08:52:52;;;;;;;9.77;4.88;;;8.20;99.90;;;;;;5015837;28;20454;-84
2021/11/02 08:55:19;;;;;;;9.52;5.47;;;8.20;99.90;;;;;;5014623;28;20497;-84
2021/11/02 08:57:47;;;;;;;7.10;4.40;;;8.30;99.90;;;;;;5010954;28;20172;-84
2021/11/02 09:00:13;;;;;;;8.38;4.50;;;8.30;99.90;;;;;;4991803;28;20486;-84
2021/11/02 09:03:22;;;;;;;8.43;5.20;;;8.30;99.90;;;;;;5006246;28;20034;-84
2021/11/02 09:05:58;;;;;;;7.38;4.57;;;8.30;99.90;;;;;;4996632;28;20397;-84
2021/11/02 09:08:27;;;;;;;7.32;4.82;;;8.30;99.90;;;;;;5004574;28;20026;-84
2021/11/02 09:10:55;;;;;;;11.63;5.15;;;8.30;99.90;;;;;;5006739;28;20026;-84
2021/11/02 09:13:23;;;;;;;9.40;5.30;;;8.40;99.90;;;;;;4977111;28;20026;-84
2021/11/02 09:15:51;;;;;;;13.07;5.30;;;8.40;99.90;;;;;;4990156;28;20482;-85
2021/11/02 09:18:20;;;;;;;9.85;5.57;;;8.50;99.90;;;;;;4995476;28;20034;-85
2021/11/02 09:20:46;;;;;;;10.55;4.70;;;8.50;99.90;;;;;;4999432;28;20050;-85
2021/11/02 09:23:11;;;;;;;7.43;5.07;;;8.60;99.90;;;;;;4997635;28;20036;-85
2021/11/02 09:25:37;;;;;;;7.13;4.68;;;8.70;99.90;;;;;;4996782;28;20133;-85
2021/11/02 09:28:03;;;;;;;9.00;5.45;;;8.70;99.90;;;;;;4997954;28;20125;-84
2021/11/02 09:30:29;;;;;;;10.32;5.05;;;8.70;99.90;;;;;;5006423;28;20436;-83
2021/11/02 09:32:56;;;;;;;7.50;5.55;;;8.70;99.90;;;;;;4996447;28;20026;-85
2021/11/02 09:35:25;;;;;;;11.15;5.20;;;8.80;99.90;;;;;;4993111;28;20375;-84
2021/11/02 09:38:06;;;;;;;9.93;4.50;;;8.80;99.90;;;;;;4994052;28;20045;-85
2021/11/02 09:40:57;;;;;;;13.45;5.78;;;8.90;99.90;;;;;;4995684;28;20486;-84
2021/11/02 09:43:48;;;;;;;10.10;5.10;;;9.00;99.90;;;;;;4986063;28;20068;-84
2021/11/02 09:46:42;;;;;;;8.88;5.32;;;9.00;99.90;;;;;;4997100;28;20026;-84
2021/11/02 09:49:10;;;;;;;13.02;5.13;;;9.00;99.90;;;;;;5008081;28;20076;-82
2021/11/02 09:52:10;;;;;;;7.88;5.68;;;9.00;99.90;;;;;;4995888;28;20482;-83
2021/11/02 09:54:59;;;;;;;9.50;5.78;;;9.10;99.90;;;;;;4995207;28;20161;-83
2021/11/02 09:58:05;;;;;;;11.70;6.28;;;9.10;99.90;;;;;;4992967;28;20057;-86
2021/11/02 10:00:41;;;;;;;10.40;6.10;;;9.20;99.90;;;;;;5007127;28;20038;-84
2021/11/02 10:03:22;;;;;;;10.68;6.35;;;9.20;99.90;;;;;;4983074;28;20400;-85
2021/11/02 10:06:05;;;;;;;9.60;6.13;;;9.30;99.90;;;;;;4999757;28;20033;-84
2021/11/02 10:08:43;;;;;;;11.93;6.70;;;9.30;99.90;;;;;;4991793;28;20076;-84
2021/11/02 10:11:26;;;;;;;10.45;6.88;;;9.40;99.90;;;;;;5010468;28;20034;-83
2021/11/02 10:14:04;;;;;;;;;;;9.40;99.90;;;;;;4997824;28;20501;-83
2021/11/02 10:16:48;;;;;;;10.20;7.40;;;9.50;99.90;;;;;;5008319;28;19935;-84
2021/11/02 10:20:01;;;;;;;9.77;6.75;;;9.50;99.90;;;;;;5000714;28;20510;-84
2021/11/02 10:22:49;;;;;;;11.82;6.70;;;9.60;99.90;;;;;;5013993;28;20072;-84
2021/11/02 10:25:28;;;;;;;10.73;6.35;;;9.60;99.90;;;;;;5016871;28;20030;-84
2021/11/02 10:28:19;;;;;;;8.20;5.65;;;9.70;99.90;;;;;;4991420;28;20172;-84
2021/11/02 10:31:03;;;;;;;13.52;7.00;;;9.70;99.90;;;;;;5005796;28;20088;-84
2021/11/02 10:33:32;;;;;;;13.02;7.10;;;9.80;99.90;;;;;;5004311;28;20025;-82
2021/11/02 10:36:16;;;;;;;9.93;6.50;;;9.80;99.90;;;;;;5004867;28;20482;-84
2021/11/02 10:39:17;;;;;;;9.98;6.80;;;9.90;99.90;;;;;;4982473;28;20034;-84
2021/11/02 10:42:05;;;;;;;9.23;6.45;;;10.00;99.90;;;;;;5000832;28;20037;-84
2021/11/02 10:44:47;;;;;;;8.45;6.03;;;10.10;99.90;;;;;;4966573;28;20057;-85
2021/11/02 10:47:18;;;;;;;10.65;6.38;;;10.10;99.90;;;;;;4991414;28;20026;-85
2021/11/02 10:50:03;;;;;;;10.03;6.10;;;10.00;99.90;;;;;;4999881;28;20060;-84
2021/11/02 10:52:32;;;;;;;9.18;6.15;;;10.00;99.90;;;;;;4998290;28;20025;-83
2021/11/02 10:55:33;;;;;;;9.30;6.65;;;10.00;99.90;;;;;;4995452;28;20072;-84
2021/11/02 10:58:21;;;;;;;8.45;6.35;;;10.00;99.90;;;;;;4999283;28;20041;-83
2021/11/02 11:00:48;;;;;;;8.40;5.85;;;10.10;99.90;;;;;;4997660;28;20017;-83
2021/11/02 11:03:17;;;;;;;8.95;5.78;;;10.20;99.90;;;;;;4990994;28;20076;-82
2021/11/02 11:05:46;;;;;;;7.47;6.03;;;10.30;99.90;;;;;;4989267;28;20033;-83
2021/11/02 11:08:15;;;;;;;9.30;6.53;;;10.40;99.90;;;;;;4982602;28;20030;-83
2021/11/02 11:10:44;;;;;;;8.68;5.43;;;10.50;99.90;;;;;;5002763;28;20033;-84
2021/11/02 11:13:12;;;;;;;9.10;6.18;;;10.60;99.90;;;;;;4998711;28;20021;-83
2021/11/02 11:15:40;;;;;;;9.27;5.70;;;10.60;99.90;;;;;;4981953;28;20086;-83
2021/11/02 11:18:08;;;;;;;8.13;5.90;;;10.60;99.90;;;;;;4999271;28;20045;-83
2021/11/02 11:20:36;;;;;;;11.48;5.90;;;10.60;99.90;;;;;;5021620;28;20064;-82
2021/11/02 11:23:11;;;;;;;9.38;5.88;;;10.60;99.90;;;;;;5021480;28;20033;-82
2021/11/02 11:25:51;;;;;;;8.77;6.18;;;10.70;99.90;;;;;;5021274;28;20390;-83
2021/11/02 11:28:18;;;;;;;11.60;5.55;;;10.70;99.90;;;;;;5015949;28;20564;-85
2021/11/02 11:30:45;;;;;;;8.82;6.03;;;10.60;99.90;;;;;;5001729;28;20033;-83
2021/11/02 11:33:16;;;;;;;8.45;6.13;;;10.60;99.90;;;;;;5017945;28;20029;-83
2021/11/02 11:35:43;;;;;;;9.05;5.75;;;10.60;99.90;;;;;;5002813;28;20482;-83
2021/11/02 11:38:10;;;;;;;10.20;7.10;;;10.60;99.90;;;;;;4996938;28;20049;-83
2021/11/02 11:40:38;;;;;;;9.50;7.05;;;10.70;99.90;;;;;;4998469;28;20417;-83
2021/11/02 11:43:06;;;;;;;9.85;7.30;;;10.80;99.90;;;;;;4997736;28;20084;-83
2021/11/02 11:45:35;;;;;;;7.72;6.68;;;10.80;99.90;;;;;;4998386;28;20052;-83
2021/11/02 11:48:08;;;;;;;9.02;6.45;;;10.90;99.90;;;;;;4993618;28;20026;-84
2021/11/02 11:50:37;;;;;;;9.55;6.80;;;10.90;99.90;;;;;;5005475;28;20117;-82
2021/11/02 11:53:03;;;;;;;11.30;6.20;;;10.90;99.90;;;;;;5003315;28;20026;-83
2021/11/02 11:55:38;;;;;;;8.93;6.65;;;10.90;99.90;;;;;;4989244;28;20030;-83
2021/11/02 11:58:24;;;;;;;8.45;5.78;;;10.80;99.90;;;;;;4989041;28;20032;-83
2021/11/02 12:00:51;;;;;;;11.98;7.53;;;10.80;99.90;;;;;;4997811;28;20068;-82
2021/11/02 12:03:37;;;;;;;8.98;6.10;;;10.70;99.90;;;;;;4998035;28;20026;-83
2021/11/02 12:06:13;;;;;;;9.45;6.68;;;10.70;99.90;;;;;;4997489;28;20025;-83
2021/11/02 12:09:14;;;;;;;7.63;5.65;;;10.50;99.90;;;;;;5016692;28;20033;-83
2021/11/02 12:11:42;;;;;;;8.95;6.05;;;10.50;99.90;;;;;;4997809;28;20038;-85
2021/11/02 12:14:22;;;;;;;11.00;7.57;;;10.40;99.90;;;;;;5009949;28;20466;-85
2021/11/02 12:16:52;;;;;;;11.23;6.65;;;10.30;99.90;;;;;;5015381;28;20072;-85
2021/11/02 12:19:28;;;;;;;11.23;7.40;;;10.30;99.90;;;;;;4997688;28;20037;-85
2021/11/02 12:22:02;;;;;;;9.75;7.25;;;10.30;99.90;;;;;;5020626;28;20042;-85
2021/11/02 12:24:32;;;;;;;11.55;7.95;;;10.30;99.90;;;;;;5000000;28;20030;-85
2021/11/02 12:27:09;;;;;;;12.63;7.97;;;10.20;99.90;;;;;;5000982;28;20065;-85
2021/11/02 12:29:35;;;;;;;12.27;8.45;;;10.30;99.90;;;;;;5015168;28;20022;-85
2021/11/02 12:32:04;;;;;;;16.20;8.52;;;10.30;99.90;;;;;;4997748;28;20450;-85
2021/11/02 12:34:50;;;;;;;12.20;8.48;;;10.30;99.90;;;;;;5024229;28;20022;-85
2021/11/02 12:37:17;;;;;;;10.68;7.40;;;10.30;99.90;;;;;;5014967;28;20034;-85
2021/11/02 12:39:44;;;;;;;12.02;8.68;;;10.40;99.90;;;;;;4996717;28;20026;-84
2021/11/02 12:42:11;;;;;;;11.23;8.30;;;10.50;99.90;;;;;;5026581;28;20039;-85
2021/11/02 12:44:38;;;;;;;17.08;7.80;;;10.70;99.90;;;;;;4998641;28;20038;-85
2021/11/02 12:47:07;;;;;;;9.77;7.65;;;10.90;99.90;;;;;;5014552;28;20100;-84
2021/11/02 12:49:39;;;;;;;8.48;7.18;;;11.00;99.90;;;;;;5014530;28;20479;-84
2021/11/02 12:52:08;;;;;;;11.38;7.50;;;11.10;99.90;;;;;;4997215;28;20026;-83
2021/11/02 12:54:34;;;;;;;11.30;6.60;;;11.20;99.90;;;;;;5014550;28;20030;-83
2021/11/02 12:57:15;;;;;;;8.98;6.38;;;11.30;99.90;;;;;;5014544;28;20022;-83
2021/11/02 12:59:58;;;;;;;10.13;7.00;;;11.40;99.90;;;;;;4997187;28;20557;-84
2021/11/02 13:02:35;;;;;;;9.00;6.88;;;11.40;99.90;;;;;;4995730;28;20036;-85
2021/11/02 13:05:14;;;;;;;9.55;6.43;;;11.40;99.90;;;;;;5014472;28;20037;-84
2021/11/02 13:07:42;;;;;;;9.55;5.53;;;11.30;99.90;;;;;;5014527;28;20055;-85
2021/11/02 13:10:15;;;;;;;7.45;5.65;;;11.30;99.90;;;;;;4996884;28;20617;-85
2021/11/02 13:12:44;;;;;;;11.52;5.78;;;11.30;99.90;;;;;;5010077;28;20034;-85
2021/11/02 13:15:13;;;;;;;7.35;5.70;;;11.30;99.90;;;;;;4996954;28;20072;-85
2021/11/02 13:17:47;;;;;;;7.30;5.50;;;11.30;99.90;;;;;;4996572;28;20034;-85
2021/11/02 13:20:28;;;;;;;8.52;5.18;;;11.30;99.90;;;;;;4996490;28;20018;-85
2021/11/02 13:22:54;;;;;;;8.50;5.35;;;11.30;99.90;;;;;;5008029;28;20500;-85
2021/11/02 13:25:24;;;;;;;14.38;5.50;;;11.30;99.90;;;;;;5009754;28;20029;-83
2021/11/02 13:27:54;;;;;;;7.97;6.15;;;11.20;99.90;;;;;;5014148;28;20488;-85
2021/11/02 13:30:46;;;;;;;8.95;5.85;;;11.10;99.90;;;;;;5013435;28;20054;-85
2021/11/02 13:33:19;;;;;;;5.13;3.75;;;11.10;99.90;;;;;;4991937;28;20046;-85
2021/11/02 13:35:50;;;;;;;4.50;2.58;;;11.00;99.90;;;;;;4996401;28;20029;-85
2021/11/02 13:38:28;;;;;;;3.67;1.85;;;10.90;99.90;;;;;;4996505;28;20112;-85
2021/11/02 13:40:55;;;;;;;3.55;2.22;;;10.80;99.90;;;;;;4996546;28;20024;-85
2021/11/02 13:43:41;;;;;;;4.88;1.70;;;10.70;99.90;;;;;;5002576;28;20034;-85
2021/11/02 13:46:09;;;;;;;6.50;2.17;;;10.60;99.90;;;;;;5000779;28;20092;-85
2021/11/02 13:48:35;;;;;;;3.60;1.55;;;10.50;99.90;;;;;;5013468;28;20030;-85
2021/11/02 13:51:03;;;;;;;3.47;1.90;;;10.40;99.90;;;;;;5023877;28;20036;-85
2021/11/02 13:53:33;;;;;;;3.80;2.47;;;10.40;99.90;;;;;;5003288;28;20490;-85
2021/11/02 13:56:07;;;;;;;7.03;2.78;;;10.40;99.90;;;;;;5001061;28;20030;-85
2021/11/02 13:58:34;;;;;;;3.95;1.58;;;10.30;99.90;;;;;;5001211;28;20034;-84
2021/11/02 14:01:00;;;;;;;1.48;0.98;;;10.20;99.90;;;;;;5001480;28;20022;-84
2021/11/02 14:03:32;;;;;;;2.85;0.60;;;10.10;99.90;;;;;;5001081;28;20056;-85
2021/11/02 14:06:01;;;;;;;1.63;0.80;;;10.00;99.90;;;;;;4998640;28;20073;-84
2021/11/02 14:08:28;;;;;;;1.90;0.80;;;9.80;99.90;;;;;;4981984;28;20077;-85
2021/11/02 14:10:56;;;;;;;1.73;0.68;;;9.70;99.90;;;;;;4997381;28;20421;-83
2021/11/02 14:13:56;;;;;;;3.05;0.75;;;9.60;99.90;;;;;;5000989;28;20030;-84
2021/11/02 14:16:34;;;;;;;1.60;1.00;;;9.50;99.90;;;;;;5012703;28;20397;-83
2021/11/02 14:19:00;;;;;;;4.00;1.67;;;9.50;99.90;;;;;;4981775;28;20455;-84
2021/11/02 14:21:48;;;;;;;2.97;1.13;;;9.50;99.90;;;;;;4991311;28;20065;-84
2021/11/02 14:24:14;;;;;;;2.83;1.38;;;9.50;99.90;;;;;;5017241;28;20053;-84
2021/11/02 14:26:47;;;;;;;2.45;1.50;;;9.60;99.90;;;;;;4994012;28;20478;-85
2021/11/02 14:29:14;;;;;;;4.97;2.03;;;9.80;99.90;;;;;;4993047;28;20034;-84
2021/11/02 14:31:43;;;;;;;3.05;2.55;;;9.90;99.90;;;;;;4993856;28;20030;-85
2021/11/02 14:34:25;;;;;;;5.30;2.50;;;10.10;99.90;;;;;;4994884;28;20118;-84
2021/11/02 14:37:27;;;;;;;4.53;2.33;;;10.20;99.90;;;;;;4994270;28;20034;-84
2021/11/02 14:40:00;;;;;;;3.50;1.70;;;10.30;99.90;;;;;;4994923;28;20026;-85
2021/11/02 14:42:49;;;;;;;4.30;2.10;;;10.30;99.90;;;;;;4996264;28;20076;-85
2021/11/02 14:45:17;;;;;;;4.57;2.00;;;10.40;99.90;;;;;;4990651;28;20485;-85
2021/11/02 14:47:43;;;;;;;4.65;2.03;;;10.40;99.90;;;;;;4991790;28;20486;-85
2021/11/02 14:50:29;;;;;;;3.17;2.15;;;10.40;99.90;;;;;;5002165;28;20053;-85
2021/11/02 14:53:18;;;;;;;3.63;2.40;;;10.40;99.90;;;;;;4984708;28;20030;-85
2021/11/02 14:55:52;;;;;;;4.20;2.72;;;10.30;99.90;;;;;;5006603;28;20063;-85
2021/11/02 14:58:39;;;;;;;4.25;3.30;;;10.30;99.90;;;;;;5007200;28;20034;-85
2021/11/02 15:01:11;;;;;;;6.32;3.03;;;10.20;99.90;;;;;;5000162;28;20470;-84
2021/11/02 15:03:53;;;;;;;6.55;3.28;;;10.10;99.90;;;;;;4998270;28;20398;-84
2021/11/02 15:06:19;;;;;;;7.00;4.18;;;10.10;99.90;;;;;;4996566;28;20034;-84
2021/11/02 15:08:47;;;;;;;5.75;4.07;;;10.10;99.90;;;;;;4998418;28;20041;-84
2021/11/02 15:11:16;;;;;;;4.75;3.90;;;10.10;99.90;;;;;;5001188;28;20037;-84
2021/11/02 15:13:57;;;;;;;5.15;4.35;;;10.20;99.90;;;;;;5034482;28;20032;-84
2021/11/02 15:16:25;;;;;;;8.10;5.10;;;10.10;99.90;;;;;;5008081;28;20022;-85
2021/11/02 15:18:53;;;;;;;6.18;4.32;;;10.10;99.90;;;;;;5009948;28;20054;-85
2021/11/02 15:21:30;;;;;;;6.18;5.18;;;10.10;99.90;;;;;;5016803;28;20405;-83
2021/11/02 15:24:01;;;;;;;7.75;5.28;;;10.00;99.90;;;;;;5012028;28;20040;-84
2021/11/02 15:26:28;;;;;;;8.00;5.32;;;10.00;99.90;;;;;;5034807;28;20022;-84
2021/11/02 15:28:53;;;;;;;6.40;5.50;;;9.90;99.90;;;;;;4998234;28;20037;-84
2021/11/02 15:31:22;;;;;;;7.05;5.15;;;9.90;99.90;;;;;;5000847;28;20026;-84
2021/11/02 15:33:49;;;;;;;7.30;5.70;;;9.90;99.90;;;;;;5000888;28;20022;-84
2021/11/02 15:36:20;;;;;;;8.27;6.00;;;9.80;99.90;;;;;;5000175;28;20066;-84
2021/11/02 15:39:07;;;;;;;6.40;5.57;;;9.70;99.90;;;;;;4999006;28;20045;-84
2021/11/02 15:41:33;;;;;;;7.07;5.97;;;9.70;99.90;;;;;;5007377;28;20022;-84
2021/11/02 15:44:08;;;;;;;8.55;5.93;;;9.70;99.90;;;;;;5013145;28;20041;-84
2021/11/02 15:46:40;;;;;;;7.50;5.32;;;9.70;99.90;;;;;;4999480;28;20030;-84
2021/11/02 15:49:14;;;;;;;6.80;5.28;;;9.70;99.90;;;;;;5019330;28;20034;-84
2021/11/02 15:51:50;;;;;;;5.80;4.72;;;9.70;99.90;;;;;;4983350;28;20030;-85
2021/11/02 15:54:16;;;;;;;4.93;3.47;;;9.60;99.90;;;;;;4982446;28;20034;-83
2021/11/02 15:56:42;;;;;;;5.43;3.20;;;9.60;99.90;;;;;;5003925;28;20027;-84
2021/11/02 15:59:08;;;;;;;3.80;3.15;;;9.60;99.90;;;;;;5000897;28;20049;-83
2021/11/02 16:01:47;;;;;;;5.90;2.83;;;9.60;99.90;;;;;;4992421;28;20022;-84
2021/11/02 16:04:22;;;;;;;5.13;2.78;;;9.50;99.90;;;;;;4987646;28;20046;-83
2021/11/02 16:06:56;;;;;;;4.57;2.35;;;9.50;99.90;;;;;;5015229;28;20030;-84
2021/11/02 16:09:21;;;;;;;4.20;2.83;;;9.50;99.90;;;;;;4997070;28;20018;-85
2021/11/02 16:11:49;;;;;;;6.55;2.85;;;9.40;99.90;;;;;;4994543;28;20037;-85
2021/11/02 16:14:17;;;;;;;4.13;2.72;;;9.40;99.90;;;;;;5002678;28;20018;-84
2021/11/02 16:16:48;;;;;;;6.20;2.45;;;9.30;99.90;;;;;;5014549;28;20394;-84
2021/11/02 16:19:14;;;;;;;3.72;2.22;;;9.20;99.90;;;;;;4997684;28;20030;-84
2021/11/02 16:21:40;;;;;;;5.25;3.13;;;9.20;99.90;;;;;;5014283;28;20060;-85
2021/11/02 16:24:09;;;;;;;5.68;3.13;;;9.10;99.90;;;;;;5015055;28;20036;-84
2021/11/02 16:26:38;;;;;;;7.68;3.45;;;9.10;99.90;;;;;;5018778;28;20136;-84
2021/11/02 16:29:14;;;;;;;4.45;3.35;;;9.00;99.90;;;;;;5023648;28;20084;-84
2021/11/02 16:31:41;;;;;;;4.65;3.42;;;9.00;99.90;;;;;;4994196;28;20475;-85
2021/11/02 16:34:21;;;;;;;5.03;3.97;;;8.90;99.90;;;;;;4996774;28;20034;-85
2021/11/02 16:36:47;;;;;;;6.07;3.60;;;8.80;99.90;;;;;;5004177;28;20022;-83
2021/11/02 16:39:13;;;;;;;7.68;4.22;;;8.80;99.90;;;;;;4989356;28;20034;-84
2021/11/02 16:41:42;;;;;;;5.70;3.85;;;8.70;99.90;;;;;;5014615;28;20378;-84
2021/11/02 16:44:11;;;;;;;6.70;4.65;;;8.70;99.90;;;;;;5010282;28;20030;-83
2021/11/02 16:46:51;;;;;;;5.03;3.83;;;8.60;99.90;;;;;;5014169;28;20051;-84
2021/11/02 16:49:19;;;;;;;6.88;4.95;;;8.60;99.90;;;;;;4997833;28;20085;-83
2021/11/02 16:51:51;;;;;;;7.13;5.07;;;8.50;99.90;;;;;;5015432;28;20069;-83
2021/11/02 16:54:26;;;;;;;9.82;5.65;;;8.40;99.90;;;;;;5023988;28;20029;-84
2021/11/02 16:57:09;;;;;;;7.43;5.60;;;8.40;99.90;;;;;;5005777;28;20128;-83
2021/11/02 16:59:38;;;;;;;10.90;5.35;;;8.30;99.90;;;;;;5001855;28;20087;-83
2021/11/02 17:02:23;;;;;;;8.50;5.68;;;8.20;99.90;;;;;;5007325;28;20120;-84
2021/11/02 17:05:06;;;;;;;8.48;5.78;;;8.20;99.90;;;;;;4979547;28;20031;-83
2021/11/02 17:07:49;;;;;;;11.55;6.15;;;8.10;99.90;;;;;;5015430;28;20116;-84
2021/11/02 17:10:20;;;;;;;8.20;6.25;;;8.10;99.90;;;;;;5003597;28;20056;-84
2021/11/02 17:12:48;;;;;;;8.95;6.50;;;8.10;99.90;;;;;;5031126;28;20025;-84
2021/11/02 17:15:22;;;;;;;9.30;6.90;;;8.00;99.90;;;;;;4996529;28;20032;-84
2021/11/02 17:17:48;;;;;;;11.23;7.38;;;8.00;99.90;;;;;;5013699;28;20061;-83
2021/11/02 17:20:14;;;;;;;9.68;6.93;;;7.90;99.90;;;;;;5013909;28;20097;-83
2021/11/02 17:22:40;;;;;;;9.80;7.40;;;7.90;99.90;;;;;;5020932;28;20060;-83
2021/11/02 17:25:06;;;;;;;10.52;7.00;;;7.80;99.90;;;;;;5006093;28;20037;-83
2021/11/02 17:27:32;;;;;;;12.40;7.80;;;7.70;99.90;;;;;;4996659;28;20029;-83
2021/11/02 17:29:58;;;;;;;13.85;8.52;;;7.70;99.90;;;;;;5005581;28;20083;-83
2021/11/02 17:32:24;;;;;;;10.05;7.50;;;7.60;99.90;;;;;;5009899;28;20037;-84
2021/11/02 17:34:50;;;;;;;10.77;8.30;;;7.60;99.90;;;;;;4976865;28;20030;-83
2021/11/02 17:37:15;;;;;;;11.32;7.82;;;7.50;99.90;;;;;;4990258;28;20038;-83
2021/11/02 17:39:41;;;;;;;16.17;9.32;;;7.50;99.90;;;;;;5001548;28;20113;-83
2021/11/02 17:42:08;;;;;;;14.48;9.90;;;7.50;99.90;;;;;;5016293;28;20027;-83
2021/11/02 17:44:38;;;;;;;14.13;9.90;;;7.50;99.90;;;;;;4997976;28;20065;-84
2021/11/02 17:47:09;;;;;;;15.13;10.82;;;7.50;99.90;;;;;;4995879;28;20168;-83
2021/11/02 17:49:37;;;;;;;17.48;9.95;;;7.50;99.90;;;;;;4996289;28;20553;-84
2021/11/02 17:52:07;;;;;;;17.92;11.85;;;7.40;99.90;;;;;;5012269;28;20041;-85
2021/11/02 17:54:34;;;;;;;15.88;11.02;;;7.40;99.90;;;;;;4992936;28;20558;-85
2021/11/02 17:57:00;;;;;;;18.42;11.52;;;7.40;99.90;;;;;;4997526;28;20026;-85
2021/11/02 17:59:26;;;;;;;18.77;11.63;;;7.40;99.90;;;;;;5007758;28;20056;-84
2021/11/02 18:01:54;;;;;;;18.70;12.13;;;7.40;99.90;;;;;;4998780;28;20087;-85
2021/11/02 18:04:21;;;;;;;18.98;12.05;;;7.40;99.90;;;;;;4991567;28;20056;-84